RVA weather

Farafangana Airport
Fianarantsoa, Madagascar

Public forecast

Using degrees Celsius for public forecast. Weather courtesy of forecast.io.

Closest aviation weather report (METAR) to Farafangana Airport

Report is more than 6 hours old.

Closest report is Vangaindrano Airport, 35.3 nm (65.4 km) SSW. Retrieved 2017/01/20 15:00 UTC (3 years ago):

FMSU 201500Z 27005KT 9999 FEW013 SCT060 28/// Q1011

Closest aviation forecast (TAF) to Farafangana Airport

Forecast is more than 12 hours old.

Closest forecast is Vangaindrano Airport, 35.3 nm (65.4 km) SSW. Retrieved 2013/09/28 00:00 UTC (6 years ago):

TAF FMSU 272200Z 2800/2824 28010KT 9999 FEW023 BECMG 2820/2822 VRB04KT